sensor_id;sensor_type;location;lat;lon;timestamp;temperature;humidity
13091;DHT22;6611;52.604;13.438;2023-03-14T00:00:31;12.80;76.75
13091;DHT22;6611;52.604;13.438;2023-03-14T00:05:34;12.72;76.88
13091;DHT22;6611;52.604;13.438;2023-03-14T00:10:36;12.56;77.31
13091;DHT22;6611;52.604;13.438;2023-03-14T00:15:37;12.49;77.27
13091;DHT22;6611;52.604;13.438;2023-03-14T00:20:40;12.45;77.40
13091;DHT22;6611;52.604;13.438;2023-03-14T00:25:42;12.46;77.29
13091;DHT22;6611;52.604;13.438;2023-03-14T00:30:44;12.38;77.36
13091;DHT22;6611;52.604;13.438;2023-03-14T00:35:54;12.27;77.53
13091;DHT22;6611;52.604;13.438;2023-03-14T00:40:55;12.27;77.61
13091;DHT22;6611;52.604;13.438;2023-03-14T00:45:57;12.22;77.87
13091;DHT22;6611;52.604;13.438;2023-03-14T00:51:00;12.18;78.06
13091;DHT22;6611;52.604;13.438;2023-03-14T00:56:02;12.11;78.30
13091;DHT22;6611;52.604;13.438;2023-03-14T01:01:06;12.02;78.72
13091;DHT22;6611;52.604;13.438;2023-03-14T01:06:11;11.95;79.14
13091;DHT22;6611;52.604;13.438;2023-03-14T01:11:15;12.02;79.07
13091;DHT22;6611;52.604;13.438;2023-03-14T01:16:18;11.95;79.18
13091;DHT22;6611;52.604;13.438;2023-03-14T01:21:23;11.89;79.68
13091;DHT22;6611;52.604;13.438;2023-03-14T01:26:28;11.91;79.67
13091;DHT22;6611;52.604;13.438;2023-03-14T01:31:32;11.83;79.88
13091;DHT22;6611;52.604;13.438;2023-03-14T01:36:35;11.89;79.76
13091;DHT22;6611;52.604;13.438;2023-03-14T01:41:36;11.87;79.60
13091;DHT22;6611;52.604;13.438;2023-03-14T01:46:39;11.90;79.60
13091;DHT22;6611;52.604;13.438;2023-03-14T01:51:46;11.98;79.21
13091;DHT22;6611;52.604;13.438;2023-03-14T01:56:53;12.04;79.01
13091;DHT22;6611;52.604;13.438;2023-03-14T02:01:56;11.98;79.23
13091;DHT22;6611;52.604;13.438;2023-03-14T02:07:01;11.93;79.54
13091;DHT22;6611;52.604;13.438;2023-03-14T02:12:06;11.91;79.47
13091;DHT22;6611;52.604;13.438;2023-03-14T02:17:09;11.80;79.90
13091;DHT22;6611;52.604;13.438;2023-03-14T02:22:13;11.74;80.15
13091;DHT22;6611;52.604;13.438;2023-03-14T02:27:17;11.74;80.14
13091;DHT22;6611;52.604;13.438;2023-03-14T02:32:20;11.82;79.92
13091;DHT22;6611;52.604;13.438;2023-03-14T02:37:27;11.84;79.71
13091;DHT22;6611;52.604;13.438;2023-03-14T02:42:33;11.82;79.73
13091;DHT22;6611;52.604;13.438;2023-03-14T02:47:36;11.90;79.38
13091;DHT22;6611;52.604;13.438;2023-03-14T02:52:41;11.89;79.53
13091;DHT22;6611;52.604;13.438;2023-03-14T02:57:44;11.93;79.03
13091;DHT22;6611;52.604;13.438;2023-03-14T03:02:46;11.83;79.06
13091;DHT22;6611;52.604;13.438;2023-03-14T03:07:48;11.82;78.89
13091;DHT22;6611;52.604;13.438;2023-03-14T03:12:51;11.79;79.15
13091;DHT22;6611;52.604;13.438;2023-03-14T03:17:52;11.65;79.29
13091;DHT22;6611;52.604;13.438;2023-03-14T03:22:54;11.66;79.10
13091;DHT22;6611;52.604;13.438;2023-03-14T03:27:57;11.72;78.77
13091;DHT22;6611;52.604;13.438;2023-03-14T03:32:59;11.72;78.68
13091;DHT22;6611;52.604;13.438;2023-03-14T03:38:00;11.73;78.71
13091;DHT22;6611;52.604;13.438;2023-03-14T03:43:03;11.70;78.58
13091;DHT22;6611;52.604;13.438;2023-03-14T03:48:06;11.69;78.46
13091;DHT22;6611;52.604;13.438;2023-03-14T03:53:07;11.63;78.84
13091;DHT22;6611;52.604;13.438;2023-03-14T03:58:10;11.63;78.65
13091;DHT22;6611;52.604;13.438;2023-03-14T04:03:12;11.55;78.70
13091;DHT22;6611;52.604;13.438;2023-03-14T04:08:14;11.51;79.04
13091;DHT22;6611;52.604;13.438;2023-03-14T04:13:17;11.52;78.86
13091;DHT22;6611;52.604;13.438;2023-03-14T04:18:19;11.46;78.84
13091;DHT22;6611;52.604;13.438;2023-03-14T04:23:20;11.42;78.71
13091;DHT22;6611;52.604;13.438;2023-03-14T04:28:25;11.54;78.41
13091;DHT22;6611;52.604;13.438;2023-03-14T04:33:27;11.55;78.03
13091;DHT22;6611;52.604;13.438;2023-03-14T04:38:29;11.48;78.32
13091;DHT22;6611;52.604;13.438;2023-03-14T04:43:32;11.43;78.05
13091;DHT22;6611;52.604;13.438;2023-03-14T04:48:34;11.45;77.84
13091;DHT22;6611;52.604;13.438;2023-03-14T04:53:36;11.46;77.76
13091;DHT22;6611;52.604;13.438;2023-03-14T04:58:39;11.35;77.96
13091;DHT22;6611;52.604;13.438;2023-03-14T05:03:40;11.43;77.64
13091;DHT22;6611;52.604;13.438;2023-03-14T05:08:42;11.45;77.59
13091;DHT22;6611;52.604;13.438;2023-03-14T05:13:46;11.40;77.36
13091;DHT22;6611;52.604;13.438;2023-03-14T05:18:48;11.46;77.13
13091;DHT22;6611;52.604;13.438;2023-03-14T05:23:49;11.38;77.56
13091;DHT22;6611;52.604;13.438;2023-03-14T05:28:52;11.36;77.37
13091;DHT22;6611;52.604;13.438;2023-03-14T05:33:54;11.42;76.90
13091;DHT22;6611;52.604;13.438;2023-03-14T05:38:56;11.40;76.61
13091;DHT22;6611;52.604;13.438;2023-03-14T05:43:59;11.49;76.43
13091;DHT22;6611;52.604;13.438;2023-03-14T05:49:00;11.51;76.03
13091;DHT22;6611;52.604;13.438;2023-03-14T05:54:02;11.48;76.25
13091;DHT22;6611;52.604;13.438;2023-03-14T05:59:05;11.46;75.86
13091;DHT22;6611;52.604;13.438;2023-03-14T06:04:09;11.45;75.80
13091;DHT22;6611;52.604;13.438;2023-03-14T06:09:10;11.56;75.15
13091;DHT22;6611;52.604;13.438;2023-03-14T06:14:13;11.59;74.86
13091;DHT22;6611;52.604;13.438;2023-03-14T06:19:15;11.59;74.97
13091;DHT22;6611;52.604;13.438;2023-03-14T06:24:17;11.59;75.16
13091;DHT22;6611;52.604;13.438;2023-03-14T06:29:20;11.70;74.28
13091;DHT22;6611;52.604;13.438;2023-03-14T06:34:22;11.69;73.91
13091;DHT22;6611;52.604;13.438;2023-03-14T06:39:23;11.70;74.02
13091;DHT22;6611;52.604;13.438;2023-03-14T06:44:26;11.77;73.25
13091;DHT22;6611;52.604;13.438;2023-03-14T06:49:28;11.91;72.92
13091;DHT22;6611;52.604;13.438;2023-03-14T06:54:30;11.91;72.80
13091;DHT22;6611;52.604;13.438;2023-03-14T06:59:33;12.18;72.84
13091;DHT22;6611;52.604;13.438;2023-03-14T07:04:35;12.59;70.89
13091;DHT22;6611;52.604;13.438;2023-03-14T07:09:37;12.72;70.80
13091;DHT22;6611;52.604;13.438;2023-03-14T07:14:40;12.86;69.85
13091;DHT22;6611;52.604;13.438;2023-03-14T07:19:41;12.77;69.40
13091;DHT22;6611;52.604;13.438;2023-03-14T07:24:43;12.56;70.10
13091;DHT22;6611;52.604;13.438;2023-03-14T07:29:46;12.43;70.32
13091;DHT22;6611;52.604;13.438;2023-03-14T07:34:48;12.48;70.54
13091;DHT22;6611;52.604;13.438;2023-03-14T07:39:49;12.81;69.41
13091;DHT22;6611;52.604;13.438;2023-03-14T07:44:52;12.80;69.64
13091;DHT22;6611;52.604;13.438;2023-03-14T07:49:54;12.77;69.62
13091;DHT22;6611;52.604;13.438;2023-03-14T07:54:55;12.70;69.52
13091;DHT22;6611;52.604;13.438;2023-03-14T07:59:58;12.84;69.80
13091;DHT22;6611;52.604;13.438;2023-03-14T08:05:00;13.08;68.80
13091;DHT22;6611;52.604;13.438;2023-03-14T08:10:03;13.43;67.59
13091;DHT22;6611;52.604;13.438;2023-03-14T08:15:07;13.70;67.54
13091;DHT22;6611;52.604;13.438;2023-03-14T08:20:10;13.70;66.74
13091;DHT22;6611;52.604;13.438;2023-03-14T08:25:13;13.77;66.71
13091;DHT22;6611;52.604;13.438;2023-03-14T08:30:17;13.65;66.81
13091;DHT22;6611;52.604;13.438;2023-03-14T08:35:19;13.50;67.15
13091;DHT22;6611;52.604;13.438;2023-03-14T08:40:21;13.39;67.18
13091;DHT22;6611;52.604;13.438;2023-03-14T08:45:25;13.36;68.22
13091;DHT22;6611;52.604;13.438;2023-03-14T08:50:27;13.31;68.80
13091;DHT22;6611;52.604;13.438;2023-03-14T08:55:28;13.18;68.60
13091;DHT22;6611;52.604;13.438;2023-03-14T09:00:32;13.19;68.89
13091;DHT22;6611;52.604;13.438;2023-03-14T09:05:33;13.08;68.63
13091;DHT22;6611;52.604;13.438;2023-03-14T09:10:36;13.07;68.57
13091;DHT22;6611;52.604;13.438;2023-03-14T09:15:40;13.14;68.10
13091;DHT22;6611;52.604;13.438;2023-03-14T09:20:42;13.52;67.34
13091;DHT22;6611;52.604;13.438;2023-03-14T09:25:44;13.66;66.93
13091;DHT22;6611;52.604;13.438;2023-03-14T09:30:47;14.05;64.34
13091;DHT22;6611;52.604;13.438;2023-03-14T09:35:49;14.43;64.31
13091;DHT22;6611;52.604;13.438;2023-03-14T09:40:52;14.67;62.92
13091;DHT22;6611;52.604;13.438;2023-03-14T09:45:56;14.73;61.82
13091;DHT22;6611;52.604;13.438;2023-03-14T09:51:01;14.64;60.72
13091;DHT22;6611;52.604;13.438;2023-03-14T09:56:11;14.53;60.62
13091;DHT22;6611;52.604;13.438;2023-03-14T10:01:16;14.29;62.19
13091;DHT22;6611;52.604;13.438;2023-03-14T10:06:20;14.12;62.24
13091;DHT22;6611;52.604;13.438;2023-03-14T10:11:24;13.91;62.52
13091;DHT22;6611;52.604;13.438;2023-03-14T10:16:30;13.88;62.26
13091;DHT22;6611;52.604;13.438;2023-03-14T10:21:36;13.87;62.75
13091;DHT22;6611;52.604;13.438;2023-03-14T10:26:40;13.84;62.89
13091;DHT22;6611;52.604;13.438;2023-03-14T10:31:52;13.74;63.28
13091;DHT22;6611;52.604;13.438;2023-03-14T10:36:55;13.84;62.92
13091;DHT22;6611;52.604;13.438;2023-03-14T10:42:04;13.80;63.16
13091;DHT22;6611;52.604;13.438;2023-03-14T10:47:16;13.78;62.09
13091;DHT22;6611;52.604;13.438;2023-03-14T10:52:21;13.70;62.58
13091;DHT22;6611;52.604;13.438;2023-03-14T10:57:24;13.70;62.78
13091;DHT22;6611;52.604;13.438;2023-03-14T11:02:46;13.73;62.50
13091;DHT22;6611;52.604;13.438;2023-03-14T11:07:52;13.77;62.32
13091;DHT22;6611;52.604;13.438;2023-03-14T11:13:03;13.78;62.99
13091;DHT22;6611;52.604;13.438;2023-03-14T11:18:40;13.77;63.17
13091;DHT22;6611;52.604;13.438;2023-03-14T11:23:52;13.62;63.33
13091;DHT22;6611;52.604;13.438;2023-03-14T11:28:58;13.63;62.86
13091;DHT22;6611;52.604;13.438;2023-03-14T11:34:11;13.67;62.64
13091;DHT22;6611;52.604;13.438;2023-03-14T11:39:15;13.73;62.65
13091;DHT22;6611;52.604;13.438;2023-03-14T11:44:20;13.84;62.37
13091;DHT22;6611;52.604;13.438;2023-03-14T11:49:31;13.87;62.42
13091;DHT22;6611;52.604;13.438;2023-03-14T11:54:39;13.81;63.66
13091;DHT22;6611;52.604;13.438;2023-03-14T11:59:50;13.76;65.50
13091;DHT22;6611;52.604;13.438;2023-03-14T12:05:26;13.76;66.11
13091;DHT22;6611;52.604;13.438;2023-03-14T12:10:29;13.59;65.46
13091;DHT22;6611;52.604;13.438;2023-03-14T12:15:36;13.62;66.63
13091;DHT22;6611;52.604;13.438;2023-03-14T12:20:50;13.46;69.41
13091;DHT22;6611;52.604;13.438;2023-03-14T12:26:14;13.43;68.18
13091;DHT22;6611;52.604;13.438;2023-03-14T12:31:37;13.49;67.89
13091;DHT22;6611;52.604;13.438;2023-03-14T12:42:45;14.26;65.36
13091;DHT22;6611;52.604;13.438;2023-03-14T12:48:09;14.36;64.95
13091;DHT22;6611;52.604;13.438;2023-03-14T12:53:50;14.30;64.95
13091;DHT22;6611;52.604;13.438;2023-03-14T12:59:05;14.10;64.10
13091;DHT22;6611;52.604;13.438;2023-03-14T13:04:11;14.07;66.73
13091;DHT22;6611;52.604;13.438;2023-03-14T13:15:11;13.74;68.96
13091;DHT22;6611;52.604;13.438;2023-03-14T13:20:18;13.67;68.51
13091;DHT22;6611;52.604;13.438;2023-03-14T13:25:21;13.90;67.59
13091;DHT22;6611;52.604;13.438;2023-03-14T13:30:26;14.73;63.88
13091;DHT22;6611;52.604;13.438;2023-03-14T13:35:38;15.29;62.49
13091;DHT22;6611;52.604;13.438;2023-03-14T13:40:43;15.35;62.93
13091;DHT22;6611;52.604;13.438;2023-03-14T13:45:49;15.64;62.94
13091;DHT22;6611;52.604;13.438;2023-03-14T13:50:53;15.24;64.04
13091;DHT22;6611;52.604;13.438;2023-03-14T13:55:55;15.35;63.97
13091;DHT22;6611;52.604;13.438;2023-03-14T14:06:25;15.15;63.33
13091;DHT22;6611;52.604;13.438;2023-03-14T14:11:38;15.28;64.64
13091;DHT22;6611;52.604;13.438;2023-03-14T14:16:44;15.31;64.57
13091;DHT22;6611;52.604;13.438;2023-03-14T14:21:46;15.39;63.70
13091;DHT22;6611;52.604;13.438;2023-03-14T14:26:51;14.90;64.80
13091;DHT22;6611;52.604;13.438;2023-03-14T14:32:02;14.81;63.21
13091;DHT22;6611;52.604;13.438;2023-03-14T14:37:04;14.72;64.42
13091;DHT22;6611;52.604;13.438;2023-03-14T14:42:13;14.49;66.08
13091;DHT22;6611;52.604;13.438;2023-03-14T14:47:18;14.38;66.99
13091;DHT22;6611;52.604;13.438;2023-03-14T14:52:30;14.04;73.42
13091;DHT22;6611;52.604;13.438;2023-03-14T14:57:36;13.66;76.51
13091;DHT22;6611;52.604;13.438;2023-03-14T15:02:45;13.35;78.64
13091;DHT22;6611;52.604;13.438;2023-03-14T15:07:48;12.72;79.46
13091;DHT22;6611;52.604;13.438;2023-03-14T15:12:49;12.32;82.46
13091;DHT22;6611;52.604;13.438;2023-03-14T15:17:52;12.05;79.85
13091;DHT22;6611;52.604;13.438;2023-03-14T15:22:54;10.27;81.33
13091;DHT22;6611;52.604;13.438;2023-03-14T15:27:56;8.97;83.20
13091;DHT22;6611;52.604;13.438;2023-03-14T15:32:59;8.34;85.28
13091;DHT22;6611;52.604;13.438;2023-03-14T15:38:01;7.35;84.72
13091;DHT22;6611;52.604;13.438;2023-03-14T15:43:03;6.02;85.79
13091;DHT22;6611;52.604;13.438;2023-03-14T15:48:06;5.50;83.76
13091;DHT22;6611;52.604;13.438;2023-03-14T15:53:08;4.76;86.73
13091;DHT22;6611;52.604;13.438;2023-03-14T15:58:15;4.56;86.51
13091;DHT22;6611;52.604;13.438;2023-03-14T16:03:19;4.28;86.65
13091;DHT22;6611;52.604;13.438;2023-03-14T16:08:21;4.06;86.42
13091;DHT22;6611;52.604;13.438;2023-03-14T16:13:23;3.77;87.40
13091;DHT22;6611;52.604;13.438;2023-03-14T16:18:27;3.91;85.85
13091;DHT22;6611;52.604;13.438;2023-03-14T16:23:29;3.62;86.37
13091;DHT22;6611;52.604;13.438;2023-03-14T16:28:31;3.34;86.66
13091;DHT22;6611;52.604;13.438;2023-03-14T16:33:36;3.22;86.33
13091;DHT22;6611;52.604;13.438;2023-03-14T16:38:40;3.07;86.68
13091;DHT22;6611;52.604;13.438;2023-03-14T16:43:42;3.00;86.51
13091;DHT22;6611;52.604;13.438;2023-03-14T16:48:45;3.01;87.17
13091;DHT22;6611;52.604;13.438;2023-03-14T16:53:47;2.97;87.37
13091;DHT22;6611;52.604;13.438;2023-03-14T16:58:49;3.00;87.88
13091;DHT22;6611;52.604;13.438;2023-03-14T17:03:52;3.11;86.79
13091;DHT22;6611;52.604;13.438;2023-03-14T17:08:55;3.25;86.57
13091;DHT22;6611;52.604;13.438;2023-03-14T17:13:57;3.19;86.64
13091;DHT22;6611;52.604;13.438;2023-03-14T17:19:00;3.17;86.37
13091;DHT22;6611;52.604;13.438;2023-03-14T17:24:02;3.22;86.49
13091;DHT22;6611;52.604;13.438;2023-03-14T17:29:04;3.28;86.05
13091;DHT22;6611;52.604;13.438;2023-03-14T17:34:07;3.34;86.33
13091;DHT22;6611;52.604;13.438;2023-03-14T17:39:10;3.45;86.32
13091;DHT22;6611;52.604;13.438;2023-03-14T17:44:12;3.46;86.74
13091;DHT22;6611;52.604;13.438;2023-03-14T17:49:16;3.48;86.97
13091;DHT22;6611;52.604;13.438;2023-03-14T17:54:18;3.56;86.94
13091;DHT22;6611;52.604;13.438;2023-03-14T17:59:20;3.64;87.04
13091;DHT22;6611;52.604;13.438;2023-03-14T18:04:23;3.78;87.28
13091;DHT22;6611;52.604;13.438;2023-03-14T18:09:24;3.88;86.74
13091;DHT22;6611;52.604;13.438;2023-03-14T18:14:26;3.94;86.51
13091;DHT22;6611;52.604;13.438;2023-03-14T18:19:29;4.01;87.57
13091;DHT22;6611;52.604;13.438;2023-03-14T18:24:30;4.14;87.17
13091;DHT22;6611;52.604;13.438;2023-03-14T18:29:32;4.18;86.58
13091;DHT22;6611;52.604;13.438;2023-03-14T18:34:36;4.23;85.79
13091;DHT22;6611;52.604;13.438;2023-03-14T18:39:38;4.21;86.97
13091;DHT22;6611;52.604;13.438;2023-03-14T18:44:39;4.14;86.81
13091;DHT22;6611;52.604;13.438;2023-03-14T18:49:43;4.16;87.03
13091;DHT22;6611;52.604;13.438;2023-03-14T18:54:45;4.21;86.66
13091;DHT22;6611;52.604;13.438;2023-03-14T18:59:46;4.21;86.70
13091;DHT22;6611;52.604;13.438;2023-03-14T19:04:50;4.32;86.57
13091;DHT22;6611;52.604;13.438;2023-03-14T19:09:52;4.16;86.41
13091;DHT22;6611;52.604;13.438;2023-03-14T19:14:53;4.22;87.10
13091;DHT22;6611;52.604;13.438;2023-03-14T19:19:56;4.22;87.66
13091;DHT22;6611;52.604;13.438;2023-03-14T19:24:58;4.25;86.73
13091;DHT22;6611;52.604;13.438;2023-03-14T19:30:00;4.29;87.01
13091;DHT22;6611;52.604;13.438;2023-03-14T19:35:03;4.31;86.55
13091;DHT22;6611;52.604;13.438;2023-03-14T19:40:06;4.33;86.10
13091;DHT22;6611;52.604;13.438;2023-03-14T19:45:10;4.22;86.85
13091;DHT22;6611;52.604;13.438;2023-03-14T19:50:13;4.15;86.18
13091;DHT22;6611;52.604;13.438;2023-03-14T19:55:15;4.18;86.40
13091;DHT22;6611;52.604;13.438;2023-03-14T20:00:17;4.16;85.92
13091;DHT22;6611;52.604;13.438;2023-03-14T20:05:22;4.22;85.20
13091;DHT22;6611;52.604;13.438;2023-03-14T20:10:23;4.21;84.90
13091;DHT22;6611;52.604;13.438;2023-03-14T20:15:25;4.18;84.09
13091;DHT22;6611;52.604;13.438;2023-03-14T20:20:28;3.98;85.13
13091;DHT22;6611;52.604;13.438;2023-03-14T20:25:30;3.94;84.67
13091;DHT22;6611;52.604;13.438;2023-03-14T20:30:32;3.93;84.29
13091;DHT22;6611;52.604;13.438;2023-03-14T20:35:35;3.88;83.01
13091;DHT22;6611;52.604;13.438;2023-03-14T20:40:38;3.86;82.72
13091;DHT22;6611;52.604;13.438;2023-03-14T20:45:39;3.81;82.38
13091;DHT22;6611;52.604;13.438;2023-03-14T20:50:44;3.81;81.73
13091;DHT22;6611;52.604;13.438;2023-03-14T20:55:46;3.73;82.20
13091;DHT22;6611;52.604;13.438;2023-03-14T21:00:49;3.67;82.69
13091;DHT22;6611;52.604;13.438;2023-03-14T21:05:53;3.64;82.64
13091;DHT22;6611;52.604;13.438;2023-03-14T21:10:55;3.60;81.77
13091;DHT22;6611;52.604;13.438;2023-03-14T21:15:58;3.55;82.40
13091;DHT22;6611;52.604;13.438;2023-03-14T21:21:01;3.29;84.52
13091;DHT22;6611;52.604;13.438;2023-03-14T21:26:03;3.32;81.99
13091;DHT22;6611;52.604;13.438;2023-03-14T21:31:06;3.28;79.66
13091;DHT22;6611;52.604;13.438;2023-03-14T21:36:10;3.19;80.51
13091;DHT22;6611;52.604;13.438;2023-03-14T21:41:11;3.11;82.85
13091;DHT22;6611;52.604;13.438;2023-03-14T21:46:13;3.08;81.92
13091;DHT22;6611;52.604;13.438;2023-03-14T21:51:16;3.17;79.49
13091;DHT22;6611;52.604;13.438;2023-03-14T21:56:18;3.17;80.61
13091;DHT22;6611;52.604;13.438;2023-03-14T22:01:20;3.15;81.40
13091;DHT22;6611;52.604;13.438;2023-03-14T22:06:24;3.14;79.48
13091;DHT22;6611;52.604;13.438;2023-03-14T22:11:26;3.14;79.94
13091;DHT22;6611;52.604;13.438;2023-03-14T22:16:28;3.15;78.74
13091;DHT22;6611;52.604;13.438;2023-03-14T22:21:31;3.18;79.62
13091;DHT22;6611;52.604;13.438;2023-03-14T22:26:33;3.04;79.82
13091;DHT22;6611;52.604;13.438;2023-03-14T22:31:34;2.96;79.79
13091;DHT22;6611;52.604;13.438;2023-03-14T22:36:38;2.98;79.56
13091;DHT22;6611;52.604;13.438;2023-03-14T22:41:40;3.04;79.68
13091;DHT22;6611;52.604;13.438;2023-03-14T22:46:41;3.05;79.09
13091;DHT22;6611;52.604;13.438;2023-03-14T22:51:44;3.01;78.80
13091;DHT22;6611;52.604;13.438;2023-03-14T22:56:46;3.01;78.76
13091;DHT22;6611;52.604;13.438;2023-03-14T23:01:48;2.96;79.11
13091;DHT22;6611;52.604;13.438;2023-03-14T23:06:51;2.84;79.78
13091;DHT22;6611;52.604;13.438;2023-03-14T23:11:52;2.87;79.60
13091;DHT22;6611;52.604;13.438;2023-03-14T23:16:54;2.86;80.14
13091;DHT22;6611;52.604;13.438;2023-03-14T23:21:58;2.91;78.85
13091;DHT22;6611;52.604;13.438;2023-03-14T23:26:59;2.94;78.92
13091;DHT22;6611;52.604;13.438;2023-03-14T23:32:01;2.84;80.03
13091;DHT22;6611;52.604;13.438;2023-03-14T23:37:04;2.81;80.96
13091;DHT22;6611;52.604;13.438;2023-03-14T23:42:06;2.93;78.82
13091;DHT22;6611;52.604;13.438;2023-03-14T23:47:08;2.80;79.91
13091;DHT22;6611;52.604;13.438;2023-03-14T23:52:11;2.84;79.45
13091;DHT22;6611;52.604;13.438;2023-03-14T23:57:13;2.79;79.41
